Burke Lakefront Airport Cleveland US
ICAO: KBKL
IATA: BKL
Category: Medium
Scheduled Services: No

Elevation: 583 ft
TransAlt. 18000 ft.

Airport Communications:
CLEVELAND APP/DEP:125.35
ASOS:125.25
ATIS:125.25
CTAF:124.3
GND:121.9
LAKEFRONT TWR:124.3
UNICOM:122.95

KBKL Zoom In..

Runways:

(A) RW 06L length 6195 ft width 150 ft
---- / hdg 65

(B) RW 06R length 5199 ft width 100 ft
---- / hdg 65

(C) RW 24L length 5199 ft width 100 ft
---- / hdg 245

(D) RW 24R length 6195 ft width 150 ft
ILS 109.75 / hdg 245

Location; KBKL
Day. 24 / Time. 12.53 Zulu
* Altimeter: 30.23
* Temperature: 20° c. 68°f.
* Wind from: 000° Speed 00 kn.
Dewpoint: 11° c.
Visibility: 10 Statute Miles.
Clouds: Clear (automated report).

KBKL 241253Z 00000KT 10SM CLR 20/11 A3023 RMK AO2 SLP236 T02000106


Wind - Calm.

 
 
jpsmedia.com for Web Design SOUNDCLOUD worldairports.se 2018   terms of use